• Join FlightAware (Why Join?)
  • Login
  • US Flag GB Flag 
03:47 EDT


 

Airport Tracker/Info


-or-


 

Live Flight TrackerFlight Track Log ✈ N75AW ✈ 08-Sep-2013 ✈ KFKL - KAPF

Flight Track Log - Related Links

Times and Time Zones

All times are in EDT time to prevent confusion due to time zone crossing. See the N75AW flight status page for this flight to view local times or setup timezone preferences in your user account.

Time Position Orientation Groundspeed Altitude Reporting Facility
EDT Latitude Longitude Course Direction KTS MPH feet Rate Location/Type
18:00 41.2844 -79.8842 191° South 180 207 4,600  Level Cleveland Center
18:01 41.2325 -79.9011 194° South 185 213 6,100 1,620 Climbing Cleveland Center
18:03 41.1328 -79.9297 192° South 190 219 9,500 1,500 Climbing Cleveland Center
18:04 41.0889 -79.9411 191° South 185 213 10,700 1,320 Climbing Cleveland Center
18:05 40.9330 -79.9279 191° South  Level Estimated
18:05 41.0369 -79.9556 192° South 185 213 12,200  Level Cleveland Center
18:06 40.9847 -79.9697 192° South 185 213 13,700 1,320 Climbing Cleveland Center
18:07 40.9267 -79.9867 192° South 191 220 14,900 1,500 Climbing Cleveland Center
18:08 40.8744 -80.0008 192° South 203 234 16,800 1,080 Climbing Cleveland Center
18:09 40.8078 -80.0208 193° South 203 234 17,100 120 Climbing Cleveland Center
18:10 40.7331 -80.0433 193° South 236 272 17,100 120 Level Cleveland Center
18:11 40.6558 -80.0658 192° South 272 313 17,400 600 Climbing Cleveland Center
18:12 40.5831 -80.0828 190° South 280 322 18,400 960 Climbing Cleveland Center
18:13 40.5144 -80.1025 192° South 268 308 19,400 780 Climbing Cleveland Center
18:14 40.4539 -80.1219 194° South 256 295 20,000 600 Climbing Cleveland Center
18:15 40.3853 -80.1389 191° South 256 295 20,600 600 Climbing Cleveland Center
18:16 40.3061 -80.1611 192° South 256 295 21,300 780 Climbing Cleveland Center
18:17 40.2417 -80.1806 193° South 256 295 22,200 900 Climbing Cleveland Center
18:18 40.1750 -80.1972 191° South 248 285 23,100 780 Climbing Cleveland Center
18:19 40.1125 -80.2139 192° South 242 278 23,800 480 Climbing Cleveland Center
18:20 40.0458 -80.2333 193° South 237 273 24,100 120 Climbing Cleveland Center
18:21 39.9728 -80.2525 191° South 249 287 24,100  Level Cleveland Center
18:22 39.8978 -80.2747 193° South 264 304 24,100  Level Cleveland Center
18:23 39.8186 -80.2967 192° South 275 316 24,100  Level Cleveland Center
18:24 39.7417 -80.3186 192° South 288 331 24,100  Level Cleveland Center
18:25 39.6625 -80.3403 192° South 293 337 24,100  Level Cleveland Center
18:26 39.5833 -80.3594 191° South 293 337 24,100  Level Cleveland Center
18:27 39.5153 -80.3778 192° South 292 336 24,100  Level Indianapolis Center
18:28 39.4189 -80.4033 192° South 295 339 24,100  Level Indianapolis Center
18:29 39.3403 -80.4264 193° South 291 335 24,100  Level Indianapolis Center
18:30 39.2608 -80.4469 191° South 291 335 24,100  Level Indianapolis Center
18:31 39.1822 -80.4678 192° South 289 333 24,100  Level Indianapolis Center
18:32 39.1033 -80.4892 192° South 288 331 24,100  Level Indianapolis Center
18:33 39.0231 -80.5103 192° South 291 335 24,100  Level Indianapolis Center
18:34 38.9433 -80.5319 192° South 292 336 24,100  Level Indianapolis Center
18:35 38.8497 -80.5575 192° South 288 331 24,100  Level Indianapolis Center
18:36 38.7717 -80.5786 192° South 286 329 24,100  Level Indianapolis Center
18:37 38.6931 -80.5983 191° South 286 329 24,100  Level Indianapolis Center
18:38 38.6144 -80.6197 192° South 287 330 24,100  Level Indianapolis Center
18:39 38.5367 -80.6400 192° South 285 328 24,100  Level Indianapolis Center
18:40 38.4581 -80.6608 192° South 287 330 24,100  Level Indianapolis Center
18:41 38.3800 -80.6808 191° South 286 329 24,100  Level Indianapolis Center
18:42 38.2847 -80.7058 192° South 289 333 24,100  Level Indianapolis Center
18:43 38.2053 -80.7264 191° South 290 334 24,100  Level Indianapolis Center
18:44 38.1272 -80.7547 196° South 290 334 24,100  Level Indianapolis Center
18:45 38.0519 -80.7908 201° Southwest 289 333 24,100  Level Indianapolis Center
18:46 37.9761 -80.8256 200° South 288 331 24,100  Level Indianapolis Center
18:47 37.8994 -80.8583 199° South 288 331 24,100  Level Indianapolis Center
18:48 37.8222 -80.8839 195° South 287 330 24,100  Level Indianapolis Center
18:49 37.7394 -80.8994 188° South 286 329 24,100  Level Indianapolis Center
18:51 37.6475 -80.9197 190° South 289 333 24,100  Level Indianapolis Center
18:52 37.5719 -80.9400 192° South 287 330 24,100  Level Indianapolis Center
18:53 37.4950 -80.9572 190° South 288 331 24,100  Level Indianapolis Center
18:54 37.4042 -80.9806 192° South 288 331 24,100  Level Indianapolis Center
18:55 37.3283 -80.9981 190° South 286 329 24,100  Level Indianapolis Center
18:56 37.2519 -81.0178 192° South 287 330 24,100  Level Indianapolis Center
18:57 37.1606 -81.0392 191° South 288 331 24,100  Level Indianapolis Center
18:57 37.1125 -81.0508 191° South 294 338 24,100  Level Atlanta Center
18:58 37.0336 -81.0694 191° South 294 338 24,100  Level Atlanta Center
18:59 36.9550 -81.0906 192° South 294 338 24,100  Level Atlanta Center
19:00 36.8867 -81.1089 192° South 294 338 24,100  Level Atlanta Center
19:01 36.8058 -81.1272 190° South 294 338 24,100  Level Atlanta Center
19:02 36.7250 -81.1458 190° South 287 330 24,100  Level Atlanta Center
19:03 36.6461 -81.1642 191° South 287 330 24,100  Level Atlanta Center
19:04 36.5672 -81.1850 192° South 292 336 24,100  Level Atlanta Center
19:05 36.4864 -81.2036 190° South 292 336 24,100  Level Atlanta Center
19:06 36.4075 -81.2217 190° South 292 336 24,100  Level Atlanta Center
19:07 36.3372 -81.2397 192° South 292 336 24,100  Level Atlanta Center
19:08 36.2561 -81.2606 192° South 292 336 24,100  Level Atlanta Center
19:09 36.1753 -81.2789 190° South 292 336 24,100  Level Atlanta Center
19:10 36.0964 -81.2994 192° South 292 336 24,100  Level Atlanta Center
19:11 36.0178 -81.3175 191° South 292 336 24,100  Level Atlanta Center
19:12 35.9389 -81.3381 192° South 292 336 24,100  Level Atlanta Center
19:13 35.8600 -81.3586 192° South 292 336 24,100  Level Atlanta Center
19:14 35.7811 -81.3767 191° South 292 336 24,100  Level Atlanta Center
19:15 35.7022 -81.3969 192° South 292 336 24,100  Level Atlanta Center
19:16 35.6214 -81.4150 190° South 292 336 24,100  Level Atlanta Center
19:17 35.5406 -81.4356 192° South 292 336 24,100  Level Atlanta Center
19:18 35.4594 -81.4533 190° South 292 336 24,100  Level Atlanta Center
19:19 35.3783 -81.4711 190° South 292 336 24,100  Level Atlanta Center
19:20 35.2914 -81.4917 191° South 292 336 24,100  Level Atlanta Center
19:21 35.2083 -81.5119 191° South 297 342 24,100  Level Atlanta Center
19:22 35.1314 -81.5322 192° South 297 342 24,100  Level Atlanta Center
19:23 35.0503 -81.5497 190° South 297 342 24,100  Level Atlanta Center
19:24 34.9714 -81.5675 190° South 291 335 24,100  Level Atlanta Center
19:25 34.8947 -81.5875 192° South 291 335 24,100  Level Atlanta Center
19:26 34.8117 -81.6050 190° South 296 341 24,100  Level Atlanta Center
19:27 34.7347 -81.6225 191° South 296 341 24,100  Level Atlanta Center
19:28 34.6536 -81.6400 190° South 296 341 24,100  Level Atlanta Center
19:29 34.5831 -81.6544 190° South 296 341 24,100 60 Level Atlanta Center
19:30 34.5061 -81.6744 192° South 296 341 24,300  Climbing Atlanta Center
19:31 34.4231 -81.6892 188° South 296 341 24,100 -120 Descending Atlanta Center
19:32 34.3461 -81.7067 191° South 296 341 24,100  Level Atlanta Center
19:33 34.2650 -81.7289 193° South 296 341 24,100  Level Atlanta Center
19:34 34.1861 -81.7436 189° South 296 341 24,100  Level Atlanta Center
19:35 34.1072 -81.7633 192° South 296 341 24,100  Level Atlanta Center
19:36 34.0261 -81.7806 190° South 296 341 24,100  Level Atlanta Center
19:37 33.9469 -81.8000 192° South 296 341 24,100  Level Atlanta Center
19:38 33.8681 -81.8172 190° South 296 341 24,100  Level Atlanta Center
19:39 33.7892 -81.8367 192° South 296 341 24,100  Level Atlanta Center
19:40 33.7100 -81.8511 189° South 296 341 24,100  Level Atlanta Center
19:41 33.6289 -81.8708 191° South 296 341 24,100  Level Atlanta Center
19:42 33.5500 -81.8903 192° South 296 341 24,100  Level Atlanta Center
19:43 33.4711 -81.9072 190° South 296 341 24,100  Level Atlanta Center
19:44 33.3919 -81.9239 190° South 296 341 24,100  Level Atlanta Center
19:45 33.3131 -81.9408 190° South 296 341 24,100  Level Atlanta Center
19:46 33.2339 -81.9603 192° South 296 341 24,100  Level Atlanta Center
19:47 33.1508 -81.9794 191° South 296 341 24,100  Level Atlanta Center
19:48 33.0739 -81.9986 192° South 291 335 24,100  Level Atlanta Center
19:49 32.9947 -82.0128 189° South 296 341 24,100  Level Atlanta Center
19:50 32.9158 -82.0294 190° South 296 341 24,100  Level Atlanta Center
19:51 32.8367 -82.0486 191° South 296 341 24,100  Level Atlanta Center
19:52 32.7597 -82.0653 190° South 296 341 24,100  Level Atlanta Center
19:54 32.6044 -82.1008 191° South 292 336 24,100  Level Jacksonville Center
19:55 32.5253 -82.1164 189° South 292 336 24,100  Level Jacksonville Center
19:56 32.4461 -82.1344 191° South 292 336 24,100  Level Jacksonville Center
19:57 32.3586 -82.1597 194° South 296 341 24,100  Level Jacksonville Center
19:58 32.2772 -82.1750 189° South 296 341 24,100  Level Jacksonville Center
19:59 32.2042 -82.1903 190° South 291 335 24,100  Level Jacksonville Center
20:00 32.1167 -82.2083 190° South 297 342 24,100  Level Jacksonville Center
20:01 32.0436 -82.2089 180° South 286 329 24,100  Level Jacksonville Center
20:02 31.9558 -82.2094 180° South 292 336 24,100  Level Jacksonville Center
20:03 31.8725 -82.2125 182° South 292 336 24,100  Level Jacksonville Center
20:04 31.8014 -82.2131 180° South 285 328 24,100  Level Jacksonville Center
20:05 31.7117 -82.2161 182° South 291 335 24,100  Level Jacksonville Center
20:06 31.6322 -82.2019 171° South 291 335 24,100  Level Jacksonville Center
20:07 31.5611 -82.1856 169° South 291 335 24,100  Level Jacksonville Center
20:08 31.4839 -82.1692 170° South 291 335 24,100  Level Jacksonville Center
20:09 31.4044 -82.1672 179° South 291 335 24,100  Level Jacksonville Center
20:10 31.3253 -82.1750 185° South 291 335 24,100  Level Jacksonville Center
20:11 31.2458 -82.1806 183° South 291 335 24,100  Level Jacksonville Center
20:12 31.1644 -82.1836 182° South 291 335 24,100  Level Jacksonville Center
20:13 31.0850 -82.1867 182° South 291 335 24,100  Level Jacksonville Center
20:14 31.0058 -82.1969 186° South 291 335 24,100  Level Jacksonville Center
20:15 30.9264 -82.2000 182° South 291 335 24,100  Level Jacksonville Center
20:16 30.8472 -82.2031 182° South 291 335 24,100  Level Jacksonville Center
20:17 30.7658 -82.2061 182° South 291 335 24,100  Level Jacksonville Center
20:18 30.6844 -82.2114 183° South 291 335 24,100  Level Jacksonville Center
20:19 30.6050 -82.2192 185° South 291 335 24,100  Level Jacksonville Center
20:20 30.5258 -82.2197 180° South 291 335 24,100  Level Jacksonville Center
20:21 30.4422 -82.2228 182° South 291 335 24,100  Level Jacksonville Center
20:22 30.3650 -82.2281 183° South 291 335 24,100  Level Jacksonville Center
20:23 30.2836 -82.2333 183° South 291 335 24,100  Level Jacksonville Center
20:24 30.2022 -82.2389 183° South 291 335 24,100  Level Jacksonville Center
20:25 30.1247 -82.2178 167° South 291 335 24,100  Level Jacksonville Center
20:26 30.0475 -82.1942 165° South 291 335 24,100  Level Jacksonville Center
20:27 29.9575 -82.1781 171° South 291 335 24,100 -240 Level Jacksonville Center
20:28 29.8803 -82.1594 168° South 296 341 23,700 -540 Descending Jacksonville Center
20:29 29.7967 -82.1364 167° South 296 341 23,100 -300 Descending Jacksonville Center
20:30 29.7108 -82.1106 165° South 306 352 23,100  Level Jacksonville Center
20:31 29.6314 -82.0872 166° South 306 352 23,100  Level Jacksonville Center
20:32 29.5497 -82.0642 166° South 301 346 23,100  Level Jacksonville Center
20:33 29.4703 -82.0458 169° South 296 341 23,100  Level Jacksonville Center
20:34 29.3908 -82.0297 170° South 296 341 23,100  Level Jacksonville Center
20:35 29.3114 -82.0067 166° South 296 341 23,100  Level Jacksonville Center
20:36 29.2319 -81.9858 167° South 296 341 23,100  Level Jacksonville Center
20:37 29.1525 -81.9606 164° South 296 341 23,100  Level Jacksonville Center
20:38 29.0772 -81.9397 166° South 296 341 23,100  Level Jacksonville Center
20:39 28.9956 -81.9217 169° South 296 341 23,100  Level Jacksonville Center
20:40 28.9183 -81.9033 168° South 296 341 23,100  Level Jacksonville Center
20:41 28.8408 -81.8806 166° South 291 335 23,100  Level Jacksonville Center
20:42 28.7636 -81.8600 167° South 291 335 23,100  Level Jacksonville Center
20:45 28.5719 -81.8128 168° South 291 335 23,100  Level Miami Center
20:46 28.4953 -81.7931 167° South 291 335 23,100  Level Miami Center
20:47 28.4169 -81.7731 167° South 297 342 23,100  Level Miami Center
20:48 28.3361 -81.7575 170° South 302 348 23,100  Level Miami Center
20:49 28.2575 -81.7378 168° South 307 353 23,100  Level Miami Center
20:50 28.1789 -81.7178 167° South 300 345 23,100  Level Miami Center
20:51 28.1003 -81.6981 168° South 294 338 23,100 -60 Level Miami Center
20:52 28.0236 -81.6806 169° South 294 338 23,000 -900 Descending Miami Center
20:53 27.9386 -81.6628 170° South 300 345 21,300 -1,740 Descending Miami Center
20:54 27.8414 -81.6378 167° South 319 367 19,600 -1,380 Descending Miami Center
20:55 27.7606 -81.6178 168° South 319 367 18,600 -1,140 Descending Miami Center
20:56 27.6842 -81.5983 167° South 313 360 17,400 -1,260 Descending Miami Center
20:57 27.6033 -81.5783 168° South 313 360 16,100 -1,320 Descending Miami Center
20:58 27.5225 -81.5611 169° South 313 360 14,800 -1,260 Descending Miami Center
20:59 27.4439 -81.5417 168° South 303 349 13,600 -1,200 Descending Miami Center
21:00 27.3692 -81.5244 168° South 291 335 12,500 -1,200 Descending Miami Center
21:01 27.2947 -81.5050 167° South 285 328 11,300 -1,200 Descending Miami Center
21:02 27.2139 -81.4856 168° South 273 314 10,100 -1,200 Descending Miami Center
21:03 27.1414 -81.4686 168° South 273 314 9,000 -600 Descending Miami Center
21:04 27.0731 -81.4519 168° South 273 314 9,000  Level Miami Center
21:05 27.0119 -81.4658 191° South 241 277 9,000  Level Miami Center
21:06 26.9506 -81.4936 202° Southwest 237 273 9,000  Level Miami Center
21:07 26.8872 -81.5167 198° South 237 273 9,000  Level Miami Center
21:08 26.8242 -81.5353 195° South 232 267 9,000  Level Miami Center
21:09 26.7628 -81.5583 199° South 232 267 9,000 -480 Level Miami Center
21:10 26.6994 -81.5836 200° South 238 274 8,100 -900 Descending Miami Center
21:12 26.5692 -81.6295 193° South  Level Estimated
21:19 26.1500 -81.7667 199° South  Level FlightAware Approximate
21:20 26.1524 -81.7756 199° South  Level Estimated
21:21 26.1524 -81.7756 199° South  Level Estimated
21:22 26.1524 -81.7756 199° South  Level Estimated
21:23 26.1524 -81.7756 199° South  Level Estimated
21:24 26.1524 -81.7756 199° South  Level Estimated
21:25 26.1524 -81.7756 199° South  Level Estimated
21:26 26.1524 -81.7756 199° South  Level Estimated
21:27 26.1524 -81.7756 199° South  Level Estimated
21:28 26.1524 -81.7756 199° South  Level Estimated
21:29 26.1524 -81.7756 199° South  Level Estimated